Terminal Aerodrome Forecast
Issued by NWS Sioux Falls, SD

Home | Current Version | Previous Version | Graphics & Text | Print | Product List | Glossary Off
Versions: 1 2 3 4 5 6 7 8 9 10 11 12 13 14 15 16 17 18 19 20 21 22 23 24 25 26 27 28 29 30 31 32

000
FTUS43 KFSD 312231 AAA
TAFSUX
TAF AMD
KSUX 312231Z 3123/0118 12006KT 1 1/2SM -SN BR OVC006
     FM010100 07010KT 1SM -SN OVC004
     FM010300 04015G22KT 3/4SM -SN OVC004
      TEMPO 0107/0111 1/2SM SN
     FM011500 36018G25KT 1 1/2SM -SN OVC005=

USA.gov is the U.S. government's official web portal to all federal, state and local government web resources and services.